Time;durP1;ratioP1;P1;durP2;ratioP2;P2;SDS_P1;SDS_P2;PMS_P1;PMS_P2;Temp;Humidity;BMP_temperature;BMP_pressure;BME280_temperature;BME280_humidity;BME280_pressure;Samples;Min_cycle;Max_cycle;Signal;HPM_P1;HPM_P2
2022/10/21 00:04:32;;;;;;;33.28;16.82;;;;;;;5.49;100.00;99755.41;4281189;81;28601;-82
2022/10/21 00:10:34;;;;;;;34.45;17.73;;;;;;;5.53;100.00;99751.88;4275411;82;28528;-83
2022/10/21 00:16:36;;;;;;;30.15;15.50;;;;;;;5.47;100.00;99752.58;4306745;81;28594;-83
2022/10/21 00:22:38;;;;;;;29.92;16.12;;;;;;;5.63;100.00;99744.45;4318497;82;28560;-84
2022/10/21 00:28:41;;;;;;;35.08;18.25;;;;;;;5.41;100.00;99746.94;4284923;81;28508;-82
2022/10/21 00:34:42;;;;;;;36.93;19.90;;;;;;;5.30;100.00;99729.55;4317986;81;28492;-85
2022/10/21 00:40:44;;;;;;;39.03;21.10;;;;;;;5.17;100.00;99713.34;4299389;81;28582;-85
2022/10/21 00:46:57;;;;;;;37.73;20.23;;;;;;;5.00;100.00;99701.98;4288322;81;28498;-84
2022/10/21 00:53:00;;;;;;;36.48;19.90;;;;;;;5.06;100.00;99693.77;4272511;81;28526;-85
2022/10/21 00:59:04;;;;;;;39.45;19.90;;;;;;;5.01;100.00;99672.98;4294987;81;28601;-83
2022/10/21 01:05:08;;;;;;;31.57;16.85;;;;;;;5.26;100.00;99660.28;4291279;81;28474;-83
2022/10/21 01:11:14;;;;;;;32.73;17.62;;;;;;;5.18;100.00;99680.34;4246706;82;28621;-83
2022/10/21 01:17:37;;;;;;;;;;;;;;;5.18;100.00;99671.01;4211804;82;28512;-83
2022/10/21 01:24:02;;;;;;;30.55;16.70;;;;;;;4.96;100.00;99651.36;4213044;82;20192;-82
2022/10/21 01:30:36;;;;;;;29.07;14.40;;;;;;;5.16;100.00;99650.37;4182212;82;28551;-82
2022/10/21 01:36:57;;;;;;;32.53;17.62;;;;;;;4.62;100.00;99663.27;4238845;81;28945;-83
2022/10/21 01:43:16;;;;;;;30.45;17.37;;;;;;;4.79;100.00;99669.31;4280535;81;28546;-84
2022/10/21 01:49:43;;;;;;;35.45;17.60;;;;;;;4.62;100.00;99668.59;4243056;82;28493;-82
2022/10/21 01:55:47;;;;;;;30.37;16.17;;;;;;;5.11;100.00;99672.73;4297823;82;28505;-82
2022/10/21 02:01:50;;;;;;;32.40;16.70;;;;;;;5.35;100.00;99665.50;4239550;83;28508;-82
2022/10/21 02:07:53;;;;;;;28.27;17.75;;;;;;;5.30;100.00;99648.23;4213299;83;28488;-82
2022/10/21 02:14:16;;;;;;;31.50;17.67;;;;;;;5.19;100.00;99651.82;4229062;82;28560;-82
2022/10/21 02:20:20;;;;;;;32.42;17.17;;;;;;;4.85;100.00;99659.29;4232323;83;28589;-83
2022/10/21 02:26:23;;;;;;;31.87;17.30;;;;;;;4.82;100.00;99659.63;4193196;83;28481;-82
2022/10/21 02:32:36;;;;;;;31.62;16.90;;;;;;;4.95;100.00;99652.37;4203524;83;28565;-82
2022/10/21 02:38:49;;;;;;;29.55;15.05;;;;;;;4.59;100.00;99637.33;4264798;82;28517;-84
2022/10/21 02:44:51;;;;;;;29.67;15.28;;;;;;;4.72;100.00;99637.23;4278424;82;28532;-84
2022/10/21 02:50:52;;;;;;;29.80;15.32;;;;;;;4.58;100.00;99633.49;4248468;82;28453;-83
2022/10/21 02:56:54;;;;;;;27.07;14.23;;;;;;;4.88;100.00;99610.95;4298731;81;28524;-85
2022/10/21 03:02:55;;;;;;;28.52;15.30;;;;;;;4.95;100.00;99607.06;4286963;82;28628;-83
2022/10/21 03:08:56;;;;;;;28.17;14.83;;;;;;;4.87;100.00;99610.11;4213238;83;28628;-83
2022/10/21 03:14:58;;;;;;;26.77;13.25;;;;;;;5.83;100.00;99595.78;4282969;81;28548;-83
2022/10/21 03:21:01;;;;;;;31.55;15.65;;;;;;;5.85;100.00;99596.45;4265293;81;28563;-83
2022/10/21 03:27:03;;;;;;;27.30;15.48;;;;;;;5.42;100.00;99600.62;4282021;81;28503;-83
2022/10/21 03:33:04;;;;;;;26.77;14.25;;;;;;;5.20;100.00;99593.00;4281366;81;28498;-83
2022/10/21 03:39:06;;;;;;;30.27;15.18;;;;;;;5.07;100.00;99575.48;4269445;81;28503;-84
2022/10/21 03:45:08;;;;;;;28.25;14.65;;;;;;;4.94;100.00;99595.56;4205265;84;28569;-83
2022/10/21 03:51:09;;;;;;;27.30;13.95;;;;;;;4.94;100.00;99586.77;4156266;84;28481;-80
2022/10/21 03:57:11;;;;;;;28.25;14.05;;;;;;;4.83;100.00;99574.69;4278701;81;28584;-83
2022/10/21 04:03:12;;;;;;;28.23;13.38;;;;;;;4.80;100.00;99579.05;4230455;83;28587;-82
2022/10/21 04:09:13;;;;;;;27.07;13.75;;;;;;;4.81;100.00;99574.05;4321078;81;28523;-84
2022/10/21 04:15:15;;;;;;;23.80;12.65;;;;;;;4.83;100.00;99559.54;4293861;81;28472;-82
2022/10/21 04:21:17;;;;;;;27.70;14.15;;;;;;;4.56;100.00;99549.77;4279006;81;28523;-84
2022/10/21 04:27:18;;;;;;;25.75;13.43;;;;;;;4.56;100.00;99543.63;4274930;82;28545;-84
2022/10/21 04:33:20;;;;;;;26.57;13.85;;;;;;;4.72;100.00;99526.68;4266035;82;28526;-85
2022/10/21 04:39:23;;;;;;;25.62;13.43;;;;;;;4.63;99.20;99524.58;4312537;81;28636;-82
2022/10/21 04:45:29;;;;;;;23.73;12.95;;;;;;;4.61;99.09;99514.61;4311892;80;28543;-81
2022/10/21 04:51:30;;;;;;;25.43;13.60;;;;;;;4.67;99.86;99519.72;4301941;80;28608;-81
2022/10/21 04:57:32;;;;;;;23.55;12.82;;;;;;;4.43;100.00;99526.92;4312376;80;28568;-80
2022/10/21 05:03:38;;;;;;;25.72;14.03;;;;;;;3.94;100.00;99524.11;4316910;80;28618;-81
2022/10/21 05:09:39;;;;;;;25.87;13.57;;;;;;;4.42;100.00;99518.61;4309942;80;28511;-80
2022/10/21 05:15:40;;;;;;;25.02;13.30;;;;;;;4.42;100.00;99495.98;4286431;81;28601;-82
2022/10/21 05:21:42;;;;;;;26.50;13.45;;;;;;;4.58;100.00;99497.18;4257722;81;29032;-82
2022/10/21 05:27:44;;;;;;;27.40;13.98;;;;;;;4.60;100.00;99512.95;4309584;81;28507;-81
2022/10/21 05:33:45;;;;;;;30.75;13.48;;;;;;;4.95;100.00;99523.97;4323163;81;28556;-80
2022/10/21 05:39:49;;;;;;;30.08;14.47;;;;;;;4.27;100.00;99541.19;4246503;82;28583;-81
2022/10/21 05:45:55;;;;;;;26.62;14.13;;;;;;;4.32;100.00;99534.81;4270210;81;28577;-80
2022/10/21 05:51:58;;;;;;;27.27;13.85;;;;;;;5.19;100.00;99527.86;4267811;81;28597;-81
2022/10/21 05:58:27;;;;;;;23.25;13.28;;;;;;;4.84;100.00;99539.88;4258861;81;28525;-80
2022/10/21 06:04:32;;;;;;;;;;;;;;;;;;;;;
2022/10/21 06:10:39;;;;;;;28.02;14.23;;;;;;;5.43;100.00;99526.75;4158541;82;28547;-80
2022/10/21 06:39:20;;;;;;;;;;;;;;;;;;;;;
2022/10/21 06:52:04;;;;;;;31.90;14.87;;;;;;;7.91;95.86;99554.38;4226586;81;28543;-83
2022/10/21 06:58:15;;;;;;;29.15;14.83;;;;;;;7.94;95.06;99541.42;4276600;82;28579;-84
2022/10/21 07:04:24;;;;;;;25.17;13.75;;;;;;;7.89;94.11;99543.86;4233775;82;28536;-84
2022/10/21 07:10:26;;;;;;;26.90;14.50;;;;;;;7.71;95.79;99541.75;4293266;82;28571;-84
2022/10/21 07:16:36;;;;;;;30.57;15.20;;;;;;;8.15;96.65;99553.52;4277878;82;28720;-84
2022/10/21 07:22:44;;;;;;;31.37;15.07;;;;;;;8.16;94.87;99546.63;4316056;82;28559;-83
2022/10/21 07:28:52;;;;;;;30.17;14.38;;;;;;;8.08;97.05;99548.98;4281520;82;28629;-83
2022/10/21 07:34:55;;;;;;;28.02;15.45;;;;;;;8.04;97.96;99545.58;4298182;82;28513;-83
2022/10/21 07:40:58;;;;;;;30.75;16.15;;;;;;;8.19;97.58;99543.53;4310144;81;28509;-83
2022/10/21 07:46:59;;;;;;;36.38;16.55;;;;;;;7.90;99.27;99541.50;4321988;82;28506;-84
2022/10/21 07:53:01;;;;;;;34.43;17.25;;;;;;;7.87;100.00;99530.39;4292869;82;28548;-83
2022/10/21 07:59:03;;;;;;;36.73;18.05;;;;;;;7.67;100.00;99519.09;4310293;82;28512;-83
2022/10/21 08:05:05;;;;;;;32.75;17.52;;;;;;;7.86;100.00;99505.95;4331348;82;28547;-84
2022/10/21 08:11:11;;;;;;;;;;;;;;;7.99;100.00;99490.45;4304123;80;28586;-83
2022/10/21 08:17:14;;;;;;;33.42;16.10;;;;;;;8.21;100.00;99471.83;4311264;81;20211;-83
2022/10/21 08:31:46;;;;;;;32.63;15.93;;;;;;;9.37;96.09;99454.56;4321688;82;28499;-83
2022/10/21 08:38:21;;;;;;;34.48;17.30;;;;;;;9.93;94.24;99468.31;4204134;81;28550;-80
2022/10/21 08:45:20;;;;;;;;;;;;;;;;;;;;;
2022/10/21 08:52:06;;;;;;;;;;;;;;;;;;;;;
2022/10/21 08:58:25;;;;;;;34.25;16.23;;;;;;;10.90;83.48;99431.35;4190940;83;28513;-80
2022/10/21 09:05:39;;;;;;;34.63;16.27;;;;;;;12.46;78.04;99425.51;4189678;83;28532;-81
2022/10/21 09:20:01;;;;;;;;;;;;;;;;;;;;;
2022/10/21 09:34:10;;;;;;;;;;;;;;;;;;;;;
2022/10/21 09:40:45;;;;;;;44.73;19.15;;;;;;;13.30;66.94;99390.28;3669854;95;28633;-82
2022/10/21 10:14:49;;;;;;;25.57;14.63;;;;;;;14.50;67.58;99342.55;3965970;87;28588;-81
2022/10/21 10:21:29;;;;;;;22.40;12.40;;;;;;;14.31;66.49;99319.01;3806262;90;28602;-82
2022/10/21 10:28:58;;;;;;;21.87;11.35;;;;;;;14.14;65.96;99302.30;3511725;99;28544;-80
2022/10/21 10:35:16;;;;;;;;;;;;;;;;;;;;;
2022/10/21 10:41:43;;;;;;;23.00;13.68;;;;;;;14.06;66.50;99282.44;3299229;105;28637;-82
2022/10/21 10:47:57;;;;;;;23.52;13.85;;;;;;;14.44;66.74;99265.09;3469932;101;28627;-81
2022/10/21 10:54:27;;;;;;;23.75;14.13;;;;;;;14.76;66.65;99268.48;3664485;89;28587;-81
2022/10/21 11:00:36;;;;;;;21.07;12.45;;;;;;;14.58;66.75;99250.66;4113965;84;28576;-81
2022/10/21 11:06:45;;;;;;;24.60;13.48;;;;;;;14.57;66.88;99242.27;4235726;82;28548;-81
2022/10/21 11:12:50;;;;;;;23.65;13.38;;;;;;;14.26;67.04;99227.80;4224836;82;28534;-82
2022/10/21 11:19:12;;;;;;;25.10;14.03;;;;;;;13.96;68.91;99226.36;4232602;82;28990;-81
2022/10/21 11:25:25;;;;;;;27.58;14.95;;;;;;;13.78;71.04;99216.62;4216946;82;28595;-81
2022/10/21 11:31:38;;;;;;;30.02;16.27;;;;;;;13.41;74.22;99203.06;4217896;82;28469;-81
2022/10/21 11:38:18;;;;;;;33.80;15.75;;;;;;;13.56;76.42;99189.56;4210827;82;28645;-81
2022/10/21 11:44:51;;;;;;;32.85;14.63;;;;;;;13.44;76.69;99172.05;4213512;82;28524;-81
2022/10/21 11:51:08;;;;;;;34.20;14.68;;;;;;;13.55;76.19;99159.56;4217382;82;28586;-80
2022/10/21 11:57:15;;;;;;;;;;;;;;;13.89;75.66;99153.53;4246150;82;28544;-81
2022/10/21 12:04:08;;;;;;;27.70;13.35;;;;;;;14.27;73.47;99138.05;4178011;82;20558;-82
2022/10/21 12:10:31;;;;;;;28.98;11.85;;;;;;;14.82;72.65;99143.50;4159916;83;28525;-81
2022/10/21 12:16:34;;;;;;;30.97;11.38;;;;;;;14.62;71.74;99127.31;4188983;83;28625;-81
2022/10/21 12:22:37;;;;;;;22.85;10.72;;;;;;;14.95;71.50;99107.91;4201599;83;28557;-81
2022/10/21 12:29:02;;;;;;;18.98;9.98;;;;;;;15.21;71.36;99109.44;4155873;84;28572;-81
2022/10/21 12:35:04;;;;;;;18.42;9.45;;;;;;;15.41;69.95;99097.94;4130451;84;28537;-82
2022/10/21 12:41:26;;;;;;;19.00;9.25;;;;;;;15.67;69.16;99091.81;4113329;84;28530;-80
2022/10/21 12:47:37;;;;;;;20.52;9.68;;;;;;;15.82;68.21;99088.36;4129396;84;28582;-81
2022/10/21 12:54:00;;;;;;;17.75;9.70;;;;;;;15.65;67.40;99079.07;4131074;84;28563;-81
2022/10/21 13:00:30;;;;;;;19.80;9.50;;;;;;;16.69;66.01;99071.50;4140736;83;28551;-82
2022/10/21 13:06:57;;;;;;;17.12;9.03;;;;;;;16.30;66.11;99061.17;4185305;83;28567;-81
2022/10/21 13:13:29;;;;;;;25.02;9.18;;;;;;;16.28;66.82;99059.25;4174483;83;28480;-82
2022/10/21 13:19:34;;;;;;;20.05;9.05;;;;;;;16.74;66.27;99067.98;4181266;82;28491;-82
2022/10/21 13:25:39;;;;;;;17.52;8.80;;;;;;;16.89;65.56;99072.59;4175738;83;28511;-82
2022/10/21 13:32:22;;;;;;;18.27;7.95;;;;;;;16.79;65.39;99063.09;4177720;82;28487;-81
2022/10/21 13:38:33;;;;;;;17.10;8.40;;;;;;;16.70;65.39;99056.84;4224454;82;28635;-81
2022/10/21 13:45:33;;;;;;;18.77;7.87;;;;;;;16.60;65.96;99045.98;4240082;82;28527;-81
2022/10/21 13:52:01;;;;;;;15.15;8.18;;;;;;;16.53;66.16;99034.05;4179409;83;28617;-81
2022/10/21 13:58:07;;;;;;;18.67;8.60;;;;;;;16.56;65.82;99026.73;4239366;82;28608;-81
2022/10/21 14:04:15;;;;;;;20.10;7.62;;;;;;;16.53;66.12;99040.03;4228670;82;28658;-81
2022/10/21 14:10:23;;;;;;;15.98;7.65;;;;;;;16.69;66.03;99028.63;4226264;82;28525;-84
2022/10/21 14:16:41;;;;;;;17.85;7.95;;;;;;;16.80;66.30;99038.92;4143030;83;28775;-86
2022/10/21 14:29:43;;;;;;;11.80;6.20;;;;;;;16.60;65.92;99033.77;4127443;83;28501;-84
2022/10/21 14:36:08;;;;;;;12.40;6.22;;;;;;;16.49;66.15;99045.18;4201358;82;28573;-83
2022/10/21 14:42:21;;;;;;;11.10;5.75;;;;;;;16.17;65.55;99044.86;4197334;83;28544;-82
2022/10/21 14:48:33;;;;;;;11.83;6.15;;;;;;;16.40;65.00;99029.98;4232231;82;28537;-82
2022/10/21 14:54:45;;;;;;;16.07;6.03;;;;;;;16.48;64.70;99040.84;4179425;83;28528;-83
2022/10/21 15:00:59;;;;;;;9.63;5.33;;;;;;;16.39;65.27;99039.19;4169841;82;28617;-82
2022/10/21 15:07:06;;;;;;;13.70;5.75;;;;;;;16.34;65.18;99035.13;4121345;83;28559;-81
2022/10/21 15:13:20;;;;;;;11.80;5.35;;;;;;;16.29;68.02;99028.32;4116726;84;28553;-82
2022/10/21 15:19:30;;;;;;;12.37;5.70;;;;;;;16.21;68.42;99041.88;4106523;84;28569;-82
2022/10/21 15:25:31;;;;;;;13.00;5.83;;;;;;;16.11;68.32;99048.63;4121028;84;28552;-82
2022/10/21 15:31:38;;;;;;;14.70;6.15;;;;;;;15.39;68.29;99059.98;4128339;84;28524;-81
2022/10/21 15:38:16;;;;;;;16.00;8.20;;;;;;;15.30;71.49;99061.00;4111772;85;28631;-82
2022/10/21 15:44:36;;;;;;;15.10;7.95;;;;;;;15.59;71.25;99066.04;4091663;85;28536;-83
2022/10/21 16:10:56;;;;;;;;;;;;;;;;;;;;;
2022/10/21 16:17:13;;;;;;;12.45;6.62;;;;;;;15.54;70.73;99092.57;4166013;82;28640;-82
2022/10/21 16:23:14;;;;;;;14.45;6.58;;;;;;;15.54;73.58;99093.13;4158057;83;28594;-81
2022/10/21 16:29:23;;;;;;;11.00;6.15;;;;;;;15.40;75.41;99103.05;4170948;83;28584;-82
2022/10/21 16:35:26;;;;;;;12.37;6.40;;;;;;;15.32;77.74;99100.86;4219530;83;28603;-82
2022/10/21 16:41:27;;;;;;;14.70;6.42;;;;;;;15.31;78.52;99110.06;4225037;82;28790;-82
2022/10/21 16:47:29;;;;;;;15.23;6.37;;;;;;;15.48;78.97;99103.92;4221428;83;28477;-81
2022/10/21 16:53:30;;;;;;;12.05;6.60;;;;;;;15.36;81.30;99099.24;4221135;83;28541;-83
2022/10/21 16:59:32;;;;;;;12.53;6.55;;;;;;;15.10;83.59;99107.73;4124037;83;28551;-84
2022/10/21 17:05:42;;;;;;;13.95;6.55;;;;;;;15.07;85.67;99112.32;4259894;82;28578;-82
2022/10/21 17:12:21;;;;;;;11.80;6.10;;;;;;;14.97;86.68;99113.04;4201866;82;28611;-82
2022/10/21 17:18:40;;;;;;;14.85;6.53;;;;;;;15.04;87.45;99117.70;4192119;83;28603;-82
2022/10/21 17:24:49;;;;;;;13.22;6.37;;;;;;;14.90;87.98;99118.67;4227090;82;28503;-87
2022/10/21 17:30:52;;;;;;;15.20;6.33;;;;;;;14.93;89.40;99116.80;4245868;82;28545;-89
2022/10/21 17:37:00;;;;;;;18.70;6.62;;;;;;;14.78;91.24;99130.48;4254241;83;28494;-88
2022/10/21 17:43:03;;;;;;;17.67;6.95;;;;;;;15.92;85.93;99125.03;4299698;83;28574;-89
2022/10/21 17:49:06;;;;;;;13.62;6.30;;;;;;;16.27;78.71;99120.84;4300421;83;28504;-89
2022/10/21 17:55:08;;;;;;;14.07;6.30;;;;;;;15.85;81.92;99121.19;4301276;83;28532;-90
2022/10/21 18:01:12;;;;;;;13.32;6.20;;;;;;;15.94;80.79;99119.36;4301529;83;28547;-89
2022/10/21 18:07:14;;;;;;;14.75;7.00;;;;;;;15.83;81.02;99116.57;4274590;82;28559;-89
2022/10/21 18:13:16;;;;;;;13.75;7.58;;;;;;;15.80;80.79;99117.11;4191653;84;28462;-88
2022/10/21 18:19:21;;;;;;;17.15;8.85;;;;;;;15.73;80.77;99110.58;4216697;83;28539;-89
2022/10/21 18:25:26;;;;;;;20.17;9.85;;;;;;;15.54;81.67;99108.83;4214795;83;28559;-89
2022/10/21 18:31:31;;;;;;;20.77;8.53;;;;;;;15.57;81.01;99109.68;4216677;83;28572;-88
2022/10/21 18:37:33;;;;;;;18.52;8.48;;;;;;;14.82;87.36;99102.90;4216791;83;28508;-88
2022/10/21 18:43:38;;;;;;;17.98;9.15;;;;;;;14.94;90.69;99089.20;4216196;84;28517;-87
2022/10/21 18:49:39;;;;;;;17.30;9.50;;;;;;;15.31;87.13;99091.10;4178346;83;28504;-89
2022/10/21 18:55:42;;;;;;;16.50;9.48;;;;;;;15.78;82.69;99089.98;4195867;83;28475;-87
2022/10/21 19:01:43;;;;;;;19.60;8.78;;;;;;;15.50;83.34;99086.05;4140256;83;28524;-88
2022/10/21 19:07:46;;;;;;;22.77;10.72;;;;;;;15.46;84.92;99084.41;4212412;83;28544;-92
2022/10/21 19:13:50;;;;;;;20.92;9.90;;;;;;;15.48;84.21;99084.16;4146102;84;28537;-88
2022/10/21 19:19:54;;;;;;;20.82;10.03;;;;;;;15.46;85.33;99075.45;4169043;84;28557;-89
2022/10/21 19:26:07;;;;;;;23.65;11.68;;;;;;;15.64;83.87;99072.85;4067027;85;28554;-81
2022/10/21 19:32:12;;;;;;;23.62;13.15;;;;;;;15.60;82.93;99077.98;4133303;85;28591;-80
2022/10/21 19:38:13;;;;;;;30.02;14.45;;;;;;;15.45;84.67;99076.53;4153838;83;28485;-81
2022/10/21 19:44:15;;;;;;;21.37;12.53;;;;;;;15.49;85.18;99073.59;4091601;83;28570;-81
2022/10/21 19:50:17;;;;;;;35.75;16.50;;;;;;;15.58;84.75;99071.19;4109890;84;28491;-83
2022/10/21 19:56:20;;;;;;;22.32;12.60;;;;;;;15.67;82.61;99055.23;4207013;83;28485;-85
2022/10/21 20:02:31;;;;;;;21.95;12.45;;;;;;;15.75;82.56;99043.88;4194561;83;28524;-83
2022/10/21 20:08:38;;;;;;;29.52;14.40;;;;;;;15.88;82.74;99040.70;4139670;83;28466;-83
2022/10/21 20:14:42;;;;;;;30.20;14.70;;;;;;;16.01;81.14;99037.23;4127669;84;28538;-83
2022/10/21 20:20:47;;;;;;;24.27;13.88;;;;;;;16.16;79.40;99014.77;4037095;86;28550;-83
2022/10/21 20:26:50;;;;;;;26.70;13.93;;;;;;;16.04;81.46;98990.59;3958492;88;28539;-85
2022/10/21 20:32:55;;;;;;;26.77;14.53;;;;;;;15.73;83.38;98969.63;4063864;85;28547;-82
2022/10/21 20:38:59;;;;;;;28.05;15.30;;;;;;;15.75;83.60;98974.77;4119997;84;28514;-81
2022/10/21 20:45:02;;;;;;;26.93;15.25;;;;;;;15.56;86.36;98967.11;4115377;84;28545;-82
2022/10/21 20:51:12;;;;;;;24.80;14.75;;;;;;;15.72;81.17;98965.30;4063735;85;28523;-81
2022/10/21 20:57:15;;;;;;;31.75;15.50;;;;;;;15.48;83.11;98965.74;4122601;84;28518;-81
2022/10/21 21:03:18;;;;;;;28.30;15.68;;;;;;;15.45;81.24;98977.64;4071646;85;28506;-81
2022/10/21 21:09:21;;;;;;;29.55;15.80;;;;;;;15.57;81.72;98976.08;4049844;84;28572;-81
2022/10/21 21:15:24;;;;;;;29.05;15.53;;;;;;;15.72;83.19;98982.09;4015098;85;28531;-81
2022/10/21 21:21:33;;;;;;;26.37;14.63;;;;;;;15.96;79.26;98985.69;4072429;84;28498;-80
2022/10/21 21:27:34;;;;;;;28.40;15.13;;;;;;;14.54;89.69;98986.56;4031413;84;28478;-80
2022/10/21 21:33:36;;;;;;;26.77;14.00;;;;;;;14.39;93.58;98983.75;4108403;85;28528;-82
2022/10/21 21:39:40;;;;;;;29.32;14.03;;;;;;;14.47;92.55;98988.66;4062887;86;28568;-81
2022/10/21 21:45:46;;;;;;;28.60;14.95;;;;;;;14.24;94.11;98989.84;4062942;86;28546;-81
2022/10/21 21:51:47;;;;;;;26.62;14.60;;;;;;;14.17;95.70;98987.34;4061579;86;28532;-80
2022/10/21 21:57:48;;;;;;;28.17;14.58;;;;;;;14.00;96.76;98977.97;4091137;85;28532;-80
2022/10/21 22:03:51;;;;;;;28.98;14.85;;;;;;;13.94;97.12;98971.70;4043218;86;28553;-79
2022/10/21 22:09:56;;;;;;;31.77;16.17;;;;;;;13.81;98.29;98966.19;4032733;86;28540;-80
2022/10/21 22:15:58;;;;;;;29.27;17.27;;;;;;;13.63;99.33;98965.97;4087460;86;28554;-80
2022/10/21 22:22:01;;;;;;;30.92;17.62;;;;;;;13.51;99.94;98975.58;4093472;84;28544;-81
2022/10/21 22:28:02;;;;;;;38.60;19.42;;;;;;;13.35;100.00;98977.25;4150927;84;28529;-81
2022/10/21 22:34:04;;;;;;;36.05;19.73;;;;;;;13.25;100.00;98996.30;4129732;84;28549;-81
2022/10/21 22:40:06;;;;;;;34.30;19.02;;;;;;;13.33;100.00;99005.00;4063353;85;28548;-81
2022/10/21 22:46:11;;;;;;;38.53;20.20;;;;;;;13.99;97.59;99004.20;4057088;86;28477;-81
2022/10/21 22:52:13;;;;;;;38.95;21.35;;;;;;;13.99;96.16;99015.53;4058358;86;28484;-80
2022/10/21 22:58:22;;;;;;;44.40;23.85;;;;;;;14.08;94.93;98998.62;4134648;84;28645;-80
2022/10/21 23:04:20;;;;;;;;;;;;;;;14.08;94.84;98991.03;4046710;86;28550;-80
2022/10/21 23:10:21;;;;;;;42.75;23.00;;;;;;;14.24;93.75;99000.66;4151206;83;20540;-81
2022/10/21 23:16:23;;;;;;;49.10;26.52;;;;;;;13.90;94.95;98989.51;4229510;82;28541;-82
2022/10/21 23:22:25;;;;;;;50.08;27.50;;;;;;;14.26;92.75;98989.05;4217804;83;28473;-81
2022/10/21 23:28:26;;;;;;;54.15;28.52;;;;;;;14.20;93.06;98996.30;4216489;83;28505;-81
2022/10/21 23:34:27;;;;;;;48.28;26.40;;;;;;;14.07;93.59;98986.17;4216238;83;28516;-80
2022/10/21 23:40:30;;;;;;;50.03;27.40;;;;;;;13.96;94.43;98987.15;4176382;83;28528;-80
2022/10/21 23:46:33;;;;;;;50.73;28.35;;;;;;;14.06;93.47;98970.20;4207605;83;28531;-79
2022/10/21 23:52:37;;;;;;;46.63;25.95;;;;;;;14.06;93.45;98987.77;4212505;83;28626;-80
2022/10/21 23:58:38;;;;;;;50.73;27.55;;;;;;;13.90;93.81;98988.98;4159848;83;28516;-80
